Time;durP1;ratioP1;P1;durP2;ratioP2;P2;SDS_P1;SDS_P2;PMS_P1;PMS_P2;Temp;Humidity;BMP_temperature;BMP_pressure;BME280_temperature;BME280_humidity;BME280_pressure;Samples;Min_cycle;Max_cycle;Signal;HPM_P1;HPM_P2
2023/10/17 00:00:39;;;;;;;10.13;3.72;;;9.30;99.90;;;;;;5049978;28;20438;-73
2023/10/17 00:03:11;;;;;;;6.90;3.22;;;9.30;99.90;;;;;;5050886;28;20412;-73
2023/10/17 00:05:37;;;;;;;7.95;3.20;;;9.30;99.90;;;;;;5051142;28;20020;-73
2023/10/17 00:08:05;;;;;;;8.30;3.35;;;9.30;99.90;;;;;;5051031;28;20390;-73
2023/10/17 00:10:35;;;;;;;7.47;3.53;;;9.30;99.90;;;;;;5051055;28;20052;-73
2023/10/17 00:15:46;;;;;;;7.63;3.20;;;9.30;99.90;;;;;;5050975;28;20044;-73
2023/10/17 00:18:15;;;;;;;11.32;3.60;;;9.30;99.90;;;;;;5050306;28;20029;-72
2023/10/17 00:20:43;;;;;;;7.90;3.53;;;9.30;99.90;;;;;;5050886;28;20078;-73
2023/10/17 00:23:20;;;;;;;10.07;3.60;;;9.30;99.90;;;;;;5048858;28;20246;-73
2023/10/17 00:25:49;;;;;;;10.23;3.85;;;9.30;99.90;;;;;;5050872;28;20035;-74
2023/10/17 00:28:20;;;;;;;9.57;3.63;;;9.30;99.90;;;;;;5050458;28;20374;-73
2023/10/17 00:30:48;;;;;;;10.68;3.60;;;9.30;99.90;;;;;;5050937;28;20040;-74
2023/10/17 00:33:16;;;;;;;6.10;3.60;;;9.30;99.90;;;;;;5050066;28;20025;-73
2023/10/17 00:35:49;;;;;;;7.78;3.22;;;9.30;99.90;;;;;;5050673;28;20158;-73
2023/10/17 00:38:15;;;;;;;10.32;3.75;;;9.30;99.90;;;;;;5029995;28;20108;-73
2023/10/17 00:43:14;;;;;;;7.40;3.20;;;9.30;99.90;;;;;;5029843;28;20065;-73
2023/10/17 00:45:46;;;;;;;9.20;3.60;;;9.30;99.90;;;;;;5048021;28;20021;-73
2023/10/17 00:48:18;;;;;;;8.48;3.42;;;9.30;99.90;;;;;;5049842;28;20079;-73
2023/10/17 00:50:47;;;;;;;6.47;3.40;;;9.30;99.90;;;;;;5050567;28;20036;-73
2023/10/17 00:53:13;;;;;;;8.93;3.35;;;9.30;99.90;;;;;;5049146;28;20052;-73
2023/10/17 00:55:40;;;;;;;9.15;3.90;;;9.30;99.90;;;;;;5050178;28;20075;-73
2023/10/17 00:58:06;;;;;;;8.85;3.90;;;9.30;99.90;;;;;;5049801;28;20021;-73
2023/10/17 01:00:36;;;;;;;8.25;3.22;;;9.30;99.90;;;;;;5050001;28;20017;-73
2023/10/17 01:03:10;;;;;;;12.25;3.80;;;9.30;99.90;;;;;;5048384;28;20027;-73
2023/10/17 01:05:57;;;;;;;10.88;3.00;;;9.30;99.90;;;;;;5050313;28;20485;-73
2023/10/17 01:11:29;;;;;;;9.80;4.10;;;9.30;99.90;;;;;;5050241;28;20115;-73
2023/10/17 01:13:57;;;;;;;9.68;3.50;;;9.30;99.90;;;;;;5049996;28;20032;-73
2023/10/17 01:16:26;;;;;;;7.68;3.65;;;9.30;99.90;;;;;;5050134;28;20104;-73
2023/10/17 01:18:53;;;;;;;7.15;3.72;;;9.30;99.90;;;;;;5049856;28;20116;-73
2023/10/17 01:21:20;;;;;;;7.57;3.40;;;9.30;99.90;;;;;;5049930;28;20446;-73
2023/10/17 01:23:47;;;;;;;8.95;3.35;;;9.30;99.90;;;;;;5048492;28;20394;-73
2023/10/17 01:26:23;;;;;;;7.80;3.20;;;9.30;99.90;;;;;;5048750;28;20024;-73
2023/10/17 01:28:50;;;;;;;6.15;3.58;;;9.30;99.90;;;;;;5049880;28;20025;-73
2023/10/17 01:31:23;;;;;;;8.70;3.20;;;9.30;99.90;;;;;;5049899;28;20465;-73
2023/10/17 01:33:59;;;;;;;7.45;3.15;;;9.30;99.90;;;;;;5049868;28;20040;-73
2023/10/17 01:36:25;;;;;;;4.57;2.90;;;9.30;99.90;;;;;;5049877;28;20217;-73
2023/10/17 01:38:52;;;;;;;5.60;2.88;;;9.30;99.90;;;;;;5049526;28;20013;-73
2023/10/17 01:41:18;;;;;;;9.13;3.30;;;9.30;99.90;;;;;;5049667;28;20112;-73
2023/10/17 01:43:45;;;;;;;10.57;3.55;;;9.30;99.90;;;;;;5049712;28;20070;-73
2023/10/17 01:46:24;;;;;;;11.38;3.92;;;9.30;99.90;;;;;;5049886;28;20033;-73
2023/10/17 01:48:54;;;;;;;9.82;3.58;;;9.30;99.90;;;;;;5049612;28;20025;-73
2023/10/17 01:51:20;;;;;;;6.43;3.23;;;9.30;99.90;;;;;;5050001;28;20349;-73
2023/10/17 01:53:53;;;;;;;7.95;3.70;;;9.30;99.90;;;;;;5048371;28;20020;-73
2023/10/17 01:56:32;;;;;;;7.25;3.75;;;9.40;99.90;;;;;;5050047;28;20052;-73
2023/10/17 01:59:04;;;;;;;9.88;4.38;;;9.40;99.90;;;;;;5049540;28;20025;-73
2023/10/17 02:01:31;;;;;;;7.50;4.05;;;9.40;99.90;;;;;;5049671;28;20032;-73
2023/10/17 02:04:04;;;;;;;8.77;5.20;;;9.40;99.90;;;;;;5049267;28;20152;-73
2023/10/17 02:06:31;;;;;;;12.55;4.30;;;9.40;99.90;;;;;;5051727;28;20036;-73
2023/10/17 02:08:58;;;;;;;10.38;4.80;;;9.40;99.90;;;;;;5053004;28;20116;-73
2023/10/17 02:11:24;;;;;;;9.77;4.25;;;9.50;99.90;;;;;;5053388;28;20028;-73
2023/10/17 02:13:57;;;;;;;7.53;4.18;;;9.50;99.90;;;;;;5053051;28;20025;-73
2023/10/17 02:16:36;;;;;;;7.80;4.15;;;9.40;99.90;;;;;;5053266;28;20019;-73
2023/10/17 02:19:08;;;;;;;9.48;4.43;;;9.50;99.90;;;;;;5052997;28;20066;-73
2023/10/17 02:21:39;;;;;;;7.20;4.38;;;9.50;99.90;;;;;;5053223;28;20029;-73
2023/10/17 02:24:08;;;;;;;7.45;3.97;;;9.50;99.90;;;;;;5052909;28;20027;-73
2023/10/17 02:26:46;;;;;;;11.40;4.18;;;9.50;99.90;;;;;;5052980;28;20028;-73
2023/10/17 02:29:12;;;;;;;9.88;3.90;;;9.60;99.90;;;;;;5052959;28;20033;-73
2023/10/17 02:31:41;;;;;;;7.13;3.80;;;9.50;99.90;;;;;;5053037;28;20025;-73
2023/10/17 02:34:09;;;;;;;11.23;4.72;;;9.50;99.90;;;;;;5051284;28;20025;-73
2023/10/17 02:36:35;;;;;;;9.35;4.25;;;9.50;99.90;;;;;;5052683;28;20017;-73
2023/10/17 02:39:02;;;;;;;11.43;4.85;;;9.60;99.90;;;;;;5052443;28;20032;-73
2023/10/17 02:41:31;;;;;;;7.78;4.03;;;9.60;99.90;;;;;;5052392;28;20031;-73
2023/10/17 02:43:57;;;;;;;9.77;4.32;;;9.60;99.90;;;;;;5052638;28;20044;-73
2023/10/17 02:46:26;;;;;;;9.05;4.40;;;9.60;99.90;;;;;;5051677;28;20114;-73
2023/10/17 02:48:53;;;;;;;8.60;4.18;;;9.50;99.90;;;;;;5052062;28;20470;-73
2023/10/17 02:53:52;;;;;;;8.45;4.60;;;9.60;99.90;;;;;;5052353;28;20032;-73
2023/10/17 02:56:21;;;;;;;8.48;4.50;;;9.50;99.90;;;;;;5051189;28;20033;-73
2023/10/17 02:59:12;;;;;;;8.20;4.25;;;9.60;99.90;;;;;;5052065;28;20570;-73
2023/10/17 03:01:39;;;;;;;7.80;4.47;;;9.60;99.90;;;;;;5052460;28;20032;-73
2023/10/17 03:04:17;;;;;;;7.95;3.80;;;9.60;99.90;;;;;;5052047;28;20044;-73
2023/10/17 03:06:46;;;;;;;7.65;4.47;;;9.60;99.90;;;;;;5052183;28;20028;-73
2023/10/17 03:14:25;;;;;;;9.88;5.20;;;9.50;99.90;;;;;;5052080;28;20078;-73
2023/10/17 03:16:54;;;;;;;8.82;4.45;;;9.60;99.90;;;;;;5049832;28;20029;-73
2023/10/17 03:19:27;;;;;;;10.18;4.90;;;9.50;99.90;;;;;;5051698;28;20100;-73
2023/10/17 03:21:54;;;;;;;9.98;4.78;;;9.50;99.90;;;;;;5052318;28;20104;-73
2023/10/17 03:27:11;;;;;;;6.88;3.78;;;9.50;99.90;;;;;;5051953;28;20059;-73
2023/10/17 03:29:41;;;;;;;8.07;4.30;;;9.50;99.90;;;;;;5051592;28;20086;-73
2023/10/17 03:32:11;;;;;;;10.83;5.00;;;9.50;99.90;;;;;;5051603;28;20401;-73
2023/10/17 03:34:40;;;;;;;10.02;4.93;;;9.50;99.90;;;;;;5047943;28;20449;-73
2023/10/17 03:40:19;;;;;;;5.50;3.55;;;9.50;99.90;;;;;;5051700;28;20036;-73
2023/10/17 03:42:50;;;;;;;7.75;4.13;;;9.40;99.90;;;;;;5050669;28;20068;-73
2023/10/17 03:45:17;;;;;;;6.15;4.35;;;9.40;99.90;;;;;;5051794;28;20087;-73
2023/10/17 03:48:04;;;;;;;7.88;4.45;;;9.40;99.90;;;;;;5051446;28;20025;-73
2023/10/17 03:50:43;;;;;;;6.47;4.00;;;9.40;99.90;;;;;;5050219;28;20029;-73
2023/10/17 03:53:15;;;;;;;8.75;4.90;;;9.40;99.90;;;;;;5051047;28;20100;-73
2023/10/17 03:55:43;;;;;;;10.10;4.60;;;9.40;99.90;;;;;;5051358;28;20506;-73
2023/10/17 03:59:16;;;;;;;7.32;4.68;;;9.40;99.90;;;;;;5050778;28;20029;-73
2023/10/17 04:01:09;;;;;;;8.68;4.35;;;9.40;99.90;;;;;;5050779;28;20087;-73
2023/10/17 04:03:35;;;;;;;6.70;4.13;;;9.40;99.90;;;;;;5050584;28;20017;-73
2023/10/17 04:08:48;;;;;;;6.32;3.80;;;9.30;99.90;;;;;;5050294;28;20094;-73
2023/10/17 04:13:50;;;;;;;11.45;4.82;;;9.30;99.90;;;;;;5050560;28;20029;-73
2023/10/17 04:16:27;;;;;;;6.43;4.15;;;9.30;99.90;;;;;;5051107;28;20029;-73
2023/10/17 04:19:16;;;;;;;7.35;4.28;;;9.30;99.90;;;;;;5049048;28;20013;-73
2023/10/17 04:21:49;;;;;;;7.00;4.97;;;9.30;99.90;;;;;;5051067;28;20021;-73
2023/10/17 04:24:24;;;;;;;5.78;3.85;;;9.30;99.90;;;;;;5050383;28;20025;-73
2023/10/17 04:26:50;;;;;;;13.90;5.10;;;9.30;99.90;;;;;;5051086;28;20450;-73
2023/10/17 04:29:21;;;;;;;9.18;5.20;;;9.30;99.90;;;;;;5049501;28;20056;-73
2023/10/17 04:31:47;;;;;;;;;;;9.30;99.90;;;;;;5051348;28;20063;-73
2023/10/17 04:34:21;;;;;;;7.45;4.50;;;9.30;99.90;;;;;;5050155;28;19936;-72
2023/10/17 04:36:51;;;;;;;7.07;5.18;;;9.30;99.90;;;;;;5051050;28;20025;-73
2023/10/17 04:44:32;;;;;;;8.10;4.38;;;9.30;99.90;;;;;;5050059;28;20028;-73
2023/10/17 04:49:27;;;;;;;6.75;4.40;;;9.30;99.90;;;;;;5050267;28;20124;-73
2023/10/17 04:52:03;;;;;;;8.27;4.65;;;9.30;99.90;;;;;;5050694;28;20013;-73
2023/10/17 04:54:39;;;;;;;8.20;4.20;;;9.30;99.90;;;;;;5048825;28;20490;-73
2023/10/17 04:57:06;;;;;;;7.05;4.55;;;9.30;99.90;;;;;;5050268;28;20029;-73
2023/10/17 06:18:49;;;;;;;25.10;14.20;;;9.30;99.90;;;;;;5038908;28;20064;-72
2023/10/17 06:21:19;;;;;;;18.50;12.60;;;9.30;99.90;;;;;;5045843;28;20025;-73
2023/10/17 06:30:06;;;;;;;21.45;13.15;;;9.20;99.90;;;;;;5046716;28;20107;-73
2023/10/17 06:34:38;;;;;;;19.58;11.60;;;9.20;99.90;;;;;;5049994;28;20090;-73
2023/10/17 06:37:07;;;;;;;20.33;11.70;;;9.20;99.90;;;;;;5055409;28;20017;-73
2023/10/17 06:39:36;;;;;;;18.92;10.85;;;9.20;99.90;;;;;;5051436;28;20033;-73
2023/10/17 06:42:14;;;;;;;19.88;11.82;;;9.30;99.90;;;;;;5051251;28;20490;-73
2023/10/17 06:44:53;;;;;;;17.85;10.43;;;9.20;99.90;;;;;;5052074;28;20163;-73
2023/10/17 06:47:23;;;;;;;18.75;11.27;;;9.20;99.90;;;;;;5051311;28;20118;-73
2023/10/17 06:55:38;;;;;;;17.48;10.15;;;9.20;99.90;;;;;;5052460;28;20040;-72
2023/10/17 06:58:10;;;;;;;18.50;10.93;;;9.20;99.90;;;;;;5050745;28;20025;-73
2023/10/17 07:03:13;;;;;;;18.17;10.77;;;9.20;99.90;;;;;;5042917;28;20057;-72
2023/10/17 07:05:39;;;;;;;14.27;9.05;;;9.20;99.90;;;;;;5051271;28;20821;-73
2023/10/17 07:08:13;;;;;;;13.88;8.15;;;9.20;99.90;;;;;;5050001;28;20025;-73
2023/10/17 07:10:39;;;;;;;12.80;8.23;;;9.20;99.90;;;;;;5051148;28;20033;-72
2023/10/17 07:13:48;;;;;;;12.82;8.85;;;9.20;99.90;;;;;;5046737;28;20032;-72
2023/10/17 07:16:16;;;;;;;14.70;9.13;;;9.20;99.90;;;;;;5051208;28;20017;-72
2023/10/17 07:18:51;;;;;;;12.57;8.48;;;9.20;99.90;;;;;;5045451;28;20033;-72
2023/10/17 07:21:23;;;;;;;15.40;9.00;;;9.20;99.90;;;;;;5046770;28;20029;-72
2023/10/17 07:23:49;;;;;;;13.88;8.65;;;9.20;99.90;;;;;;5046987;28;20071;-72
2023/10/17 07:26:25;;;;;;;12.50;7.38;;;9.20;99.90;;;;;;5052055;28;20047;-73
2023/10/17 07:28:54;;;;;;;13.68;8.57;;;9.30;99.90;;;;;;5051524;28;20056;-73
2023/10/17 07:31:22;;;;;;;12.77;8.45;;;9.30;99.90;;;;;;5051780;28;20067;-73
2023/10/17 07:34:07;;;;;;;10.65;7.38;;;9.30;99.90;;;;;;5051021;28;20036;-73
2023/10/17 07:36:34;;;;;;;11.15;7.70;;;9.30;99.90;;;;;;5051676;28;20029;-72
2023/10/17 07:39:05;;;;;;;12.02;7.82;;;9.30;99.90;;;;;;5047982;28;20017;-73
2023/10/17 07:41:37;;;;;;;12.95;8.27;;;9.30;99.90;;;;;;5044949;28;20028;-73
2023/10/17 07:44:19;;;;;;;11.40;7.40;;;9.30;99.90;;;;;;5048323;28;20537;-73
2023/10/17 07:47:09;;;;;;;13.75;7.90;;;9.30;99.90;;;;;;5042424;28;20417;-72
2023/10/17 07:49:36;;;;;;;13.10;7.32;;;9.40;99.90;;;;;;5036252;28;20083;-72
2023/10/17 07:52:10;;;;;;;12.60;8.60;;;9.40;99.90;;;;;;5051433;28;20100;-73
2023/10/17 07:54:39;;;;;;;15.25;8.48;;;9.40;99.90;;;;;;5048915;28;20029;-72
2023/10/17 07:57:06;;;;;;;15.18;8.90;;;9.40;99.90;;;;;;5049576;28;20120;-72
2023/10/17 07:59:32;;;;;;;11.45;7.88;;;9.50;99.90;;;;;;5049391;28;20071;-72
2023/10/17 08:02:00;;;;;;;11.77;7.90;;;9.50;99.90;;;;;;5044353;28;20021;-72
2023/10/17 08:04:30;;;;;;;17.33;9.73;;;9.50;99.90;;;;;;5050313;28;20021;-72
2023/10/17 08:06:56;;;;;;;16.27;10.20;;;9.50;99.90;;;;;;5051726;28;20055;-72
2023/10/17 08:11:52;;;;;;;14.15;8.40;;;9.60;99.90;;;;;;5051108;28;20074;-72
2023/10/17 08:14:40;;;;;;;15.32;8.82;;;9.70;99.90;;;;;;5050573;28;20036;-73
2023/10/17 08:17:08;;;;;;;15.90;10.10;;;9.70;99.90;;;;;;5044670;28;20162;-73
2023/10/17 08:22:19;;;;;;;14.27;9.50;;;9.80;99.90;;;;;;5050774;28;20040;-73
2023/10/17 08:24:51;;;;;;;14.90;9.40;;;9.80;99.90;;;;;;5044597;28;20021;-72
2023/10/17 08:29:48;;;;;;;15.88;10.13;;;9.90;99.90;;;;;;5050296;28;20033;-72
2023/10/17 08:34:45;;;;;;;15.07;10.48;;;10.00;99.90;;;;;;5040577;28;20085;-72
2023/10/17 08:37:17;;;;;;;16.17;10.38;;;10.00;99.90;;;;;;5049846;28;20025;-72
2023/10/17 08:42:12;;;;;;;18.08;11.55;;;10.10;99.90;;;;;;5049883;28;20104;-72
2023/10/17 08:44:41;;;;;;;13.60;9.52;;;10.10;99.90;;;;;;5049659;28;20019;-72
2023/10/17 08:47:07;;;;;;;14.02;9.25;;;10.20;99.90;;;;;;5044636;28;20064;-72
2023/10/17 08:49:33;;;;;;;14.30;10.10;;;10.20;99.90;;;;;;5051560;28;20402;-72
2023/10/17 08:51:59;;;;;;;17.77;11.38;;;10.30;99.90;;;;;;5050441;28;20074;-72
2023/10/17 08:54:28;;;;;;;19.02;12.35;;;10.30;99.90;;;;;;5044404;28;20125;-73
2023/10/17 08:56:54;;;;;;;17.38;10.98;;;10.40;99.90;;;;;;5042707;28;20057;-72
2023/10/17 08:59:55;;;;;;;17.40;10.88;;;10.40;99.90;;;;;;5049624;28;20064;-72
2023/10/17 09:02:20;;;;;;;16.35;11.25;;;10.50;99.90;;;;;;5050570;28;20033;-73
2023/10/17 09:04:46;;;;;;;19.33;12.32;;;10.60;99.90;;;;;;5038687;28;20039;-73
2023/10/17 09:07:31;;;;;;;18.02;11.25;;;10.70;99.90;;;;;;5050328;28;20025;-73
2023/10/17 09:10:02;;;;;;;15.95;11.07;;;10.70;99.90;;;;;;5045131;28;20381;-73
2023/10/17 09:12:28;;;;;;;17.75;11.55;;;10.80;99.90;;;;;;5051284;28;20108;-73
2023/10/17 09:14:56;;;;;;;13.73;9.88;;;10.90;99.90;;;;;;5048066;28;20108;-72
2023/10/17 09:19:52;;;;;;;15.63;10.93;;;11.10;99.90;;;;;;5061035;28;20032;-73
2023/10/17 09:22:40;;;;;;;16.17;10.73;;;11.20;99.90;;;;;;5052514;28;20021;-72
2023/10/17 09:25:26;;;;;;;16.88;9.88;;;11.30;99.90;;;;;;5053671;28;20509;-73
2023/10/17 09:27:53;;;;;;;18.55;11.48;;;11.40;99.90;;;;;;5052375;28;20481;-73
2023/10/17 09:30:19;;;;;;;17.15;10.82;;;11.40;99.90;;;;;;5052117;28;20147;-73
2023/10/17 09:32:46;;;;;;;16.75;10.93;;;11.50;99.90;;;;;;5052318;28;20057;-73
2023/10/17 09:35:14;;;;;;;16.35;10.40;;;11.60;99.90;;;;;;5050289;28;20036;-73
2023/10/17 09:37:50;;;;;;;16.15;10.77;;;11.70;99.90;;;;;;5052034;28;20100;-73
2023/10/17 09:40:33;;;;;;;11.27;8.93;;;11.80;99.90;;;;;;5050730;28;20079;-73
2023/10/17 09:43:00;;;;;;;16.08;10.68;;;11.90;99.90;;;;;;5053700;28;20052;-73
2023/10/17 09:45:33;;;;;;;14.38;9.65;;;12.00;99.90;;;;;;5053483;28;20045;-73
2023/10/17 09:48:01;;;;;;;15.77;10.27;;;12.10;99.90;;;;;;5054135;28;20485;-73
2023/10/17 09:50:28;;;;;;;14.38;10.15;;;12.30;99.90;;;;;;5053743;28;20358;-73
2023/10/17 09:52:57;;;;;;;12.30;9.10;;;12.30;99.90;;;;;;5054024;28;20547;-73
2023/10/17 09:55:24;;;;;;;12.50;8.77;;;12.40;99.90;;;;;;5053383;28;20025;-73
2023/10/17 09:57:54;;;;;;;16.95;10.35;;;12.60;99.90;;;;;;5053930;28;20029;-73
2023/10/17 10:00:27;;;;;;;14.20;8.95;;;12.60;99.90;;;;;;5049114;28;20098;-72
2023/10/17 10:02:54;;;;;;;15.75;9.18;;;12.70;99.90;;;;;;5053747;28;20025;-72
2023/10/17 10:05:26;;;;;;;12.85;8.02;;;12.80;99.90;;;;;;5052957;28;20044;-73
2023/10/17 10:07:52;;;;;;;12.68;8.02;;;12.90;99.90;;;;;;5053567;28;20013;-73
2023/10/17 10:10:57;;;;;;;15.77;8.00;;;12.90;99.90;;;;;;5053005;28;20140;-73
2023/10/17 10:13:24;;;;;;;10.32;7.30;;;13.10;99.90;;;;;;4989442;28;20030;-72
2023/10/17 10:15:55;;;;;;;13.48;8.70;;;13.10;99.90;;;;;;5007745;28;20438;-73
2023/10/17 10:18:35;;;;;;;10.90;7.32;;;13.20;99.90;;;;;;5011174;28;20120;-73
2023/10/17 10:21:04;;;;;;;10.35;6.47;;;13.20;99.90;;;;;;5010939;28;20029;-73
2023/10/17 10:23:34;;;;;;;11.52;7.13;;;13.30;99.90;;;;;;5010590;28;20022;-73
2023/10/17 10:26:13;;;;;;;12.27;7.32;;;13.30;99.90;;;;;;4994239;28;20467;-73
2023/10/17 10:28:43;;;;;;;9.95;6.63;;;13.40;99.90;;;;;;5010560;28;20030;-73
2023/10/17 10:31:26;;;;;;;12.95;7.80;;;13.50;99.90;;;;;;5010610;28;20041;-73
2023/10/17 10:33:56;;;;;;;9.65;6.90;;;13.60;99.90;;;;;;5010370;28;20058;-73
2023/10/17 10:36:23;;;;;;;13.40;8.00;;;13.70;99.90;;;;;;5010567;28;20061;-73
2023/10/17 10:38:49;;;;;;;12.35;7.35;;;13.70;99.90;;;;;;5010097;28;20513;-73
2023/10/17 10:41:15;;;;;;;8.82;6.45;;;13.80;99.90;;;;;;5010431;28;20069;-73
2023/10/17 10:43:45;;;;;;;11.25;7.15;;;13.90;99.90;;;;;;5023429;28;20075;-73
2023/10/17 10:46:11;;;;;;;12.70;7.47;;;14.00;99.90;;;;;;5052664;28;20117;-73
2023/10/17 10:48:45;;;;;;;11.15;6.43;;;14.10;99.90;;;;;;5052288;28;20139;-72
2023/10/17 10:51:15;;;;;;;10.95;6.75;;;14.20;99.90;;;;;;5052237;28;20021;-72
2023/10/17 10:53:42;;;;;;;9.30;6.72;;;14.20;99.90;;;;;;5051550;28;20512;-73
2023/10/17 10:56:09;;;;;;;12.38;7.50;;;14.30;99.90;;;;;;5050774;28;20029;-73
2023/10/17 10:58:48;;;;;;;9.23;6.65;;;14.30;99.90;;;;;;5040429;28;20025;-72
2023/10/17 11:01:14;;;;;;;12.75;7.07;;;14.30;99.90;;;;;;5050709;28;20029;-72
2023/10/17 11:03:46;;;;;;;9.80;6.63;;;14.40;99.90;;;;;;5051705;28;20432;-73
2023/10/17 11:06:13;;;;;;;9.57;6.07;;;14.40;99.90;;;;;;5052772;28;20074;-73
2023/10/17 11:08:44;;;;;;;12.27;6.60;;;14.40;99.90;;;;;;5046141;28;20555;-72
2023/10/17 11:11:10;;;;;;;9.27;5.75;;;14.40;99.90;;;;;;5043044;28;20493;-73
2023/10/17 11:13:38;;;;;;;9.32;6.15;;;14.40;99.90;;;;;;5049573;28;20112;-71
2023/10/17 11:16:07;;;;;;;7.70;5.20;;;14.50;99.90;;;;;;5048212;28;20119;-72
2023/10/17 11:18:44;;;;;;;10.18;5.70;;;14.50;99.90;;;;;;5039113;28;20057;-72
2023/10/17 11:21:16;;;;;;;10.98;5.50;;;14.60;99.90;;;;;;5049604;28;20425;-72
2023/10/17 11:23:53;;;;;;;7.60;4.90;;;14.70;99.90;;;;;;5051185;28;20025;-72
2023/10/17 11:26:22;;;;;;;8.63;5.35;;;14.80;99.90;;;;;;5049649;28;20090;-72
2023/10/17 11:28:51;;;;;;;7.22;4.60;;;14.80;99.90;;;;;;5048416;28;20121;-72
2023/10/17 11:31:24;;;;;;;8.18;5.03;;;14.90;99.90;;;;;;5045250;28;20057;-73
2023/10/17 11:33:59;;;;;;;7.00;4.55;;;14.90;99.90;;;;;;5044342;28;20025;-73
2023/10/17 11:36:25;;;;;;;6.75;4.30;;;15.00;99.90;;;;;;5051715;28;20071;-73
2023/10/17 11:38:58;;;;;;;7.13;4.50;;;15.00;99.90;;;;;;5050565;28;20021;-72
2023/10/17 11:41:31;;;;;;;6.78;4.18;;;15.00;99.90;;;;;;5062200;28;20047;-73
2023/10/17 11:44:04;;;;;;;11.20;4.70;;;15.10;99.90;;;;;;5046310;28;20102;-73
2023/10/17 11:46:34;;;;;;;6.97;4.45;;;15.20;99.90;;;;;;5044272;28;20025;-72
2023/10/17 11:49:28;;;;;;;6.90;4.53;;;15.20;99.90;;;;;;5050301;28;20056;-72
2023/10/17 11:52:01;;;;;;;10.30;4.95;;;15.30;99.90;;;;;;5051417;28;20110;-72
2023/10/17 11:54:27;;;;;;;9.63;5.15;;;15.40;99.90;;;;;;5050919;28;20028;-73
2023/10/17 11:56:56;;;;;;;7.47;4.40;;;15.50;99.90;;;;;;5047945;28;20028;-72
2023/10/17 11:59:22;;;;;;;7.40;4.30;;;15.50;99.90;;;;;;5053571;28;20036;-72
2023/10/17 12:01:52;;;;;;;6.72;3.55;;;15.60;99.90;;;;;;5050959;28;20020;-73
2023/10/17 12:04:19;;;;;;;8.32;3.80;;;15.60;99.90;;;;;;5039734;28;20022;-72
2023/10/17 12:06:48;;;;;;;6.65;3.60;;;15.60;99.90;;;;;;5045426;28;20025;-72
2023/10/17 12:09:23;;;;;;;6.68;3.90;;;15.70;99.90;;;;;;5050849;28;20017;-72
2023/10/17 12:11:51;;;;;;;7.13;3.05;;;15.70;99.90;;;;;;5051085;28;20154;-72
2023/10/17 12:14:20;;;;;;;7.22;4.40;;;15.80;99.90;;;;;;5050246;28;20025;-74
2023/10/17 12:16:54;;;;;;;4.82;3.13;;;15.80;99.90;;;;;;5051139;28;20025;-73
2023/10/17 12:19:20;;;;;;;7.38;4.03;;;15.90;99.90;;;;;;5049023;28;20044;-74
2023/10/17 12:21:49;;;;;;;7.55;4.30;;;16.00;99.90;;;;;;5049536;28;20092;-74
2023/10/17 12:24:19;;;;;;;6.38;3.38;;;16.00;99.90;;;;;;5046823;28;20465;-74
2023/10/17 12:26:49;;;;;;;12.13;3.90;;;16.00;99.90;;;;;;5046190;28;20465;-72
2023/10/17 12:29:19;;;;;;;5.50;3.05;;;16.10;99.90;;;;;;5048529;28;20029;-72
2023/10/17 12:31:48;;;;;;;5.95;2.83;;;16.10;99.90;;;;;;5050904;28;20473;-73
2023/10/17 12:34:18;;;;;;;5.35;2.63;;;16.10;99.90;;;;;;5049801;28;20051;-73
2023/10/17 12:36:46;;;;;;;5.63;3.15;;;16.20;99.90;;;;;;5049278;28;20055;-73
2023/10/17 12:39:12;;;;;;;5.70;2.70;;;16.20;99.90;;;;;;5048337;28;20199;-73
2023/10/17 12:41:39;;;;;;;5.93;2.50;;;16.20;99.90;;;;;;5050412;28;20119;-73
2023/10/17 12:44:05;;;;;;;7.18;2.63;;;16.10;99.90;;;;;;5049018;28;20021;-73
2023/10/17 12:46:31;;;;;;;6.78;2.75;;;16.10;99.90;;;;;;5048620;28;20473;-75
2023/10/17 12:48:57;;;;;;;5.30;2.63;;;16.10;99.90;;;;;;5046444;28;20024;-73
2023/10/17 12:51:23;;;;;;;6.38;2.90;;;16.10;99.90;;;;;;5048218;28;20172;-73
2023/10/17 12:53:51;;;;;;;6.75;2.40;;;16.10;99.90;;;;;;5048456;28;20491;-73
2023/10/17 12:56:20;;;;;;;7.28;2.63;;;16.10;99.90;;;;;;5048507;28;20029;-73
2023/10/17 12:58:46;;;;;;;4.85;2.55;;;16.10;99.90;;;;;;5048961;28;20469;-72
2023/10/17 13:01:12;;;;;;;6.07;2.85;;;16.10;99.90;;;;;;5048409;28;20064;-72
2023/10/17 13:03:38;;;;;;;3.65;2.03;;;16.20;99.90;;;;;;5048913;28;20683;-72
2023/10/17 13:06:10;;;;;;;4.32;2.40;;;16.20;99.90;;;;;;5049594;28;20032;-73
2023/10/17 13:08:36;;;;;;;6.13;2.47;;;16.20;99.90;;;;;;5050291;28;20021;-73
2023/10/17 13:11:02;;;;;;;4.70;2.83;;;16.30;99.90;;;;;;5049836;28;20032;-73
2023/10/17 13:13:30;;;;;;;6.88;2.53;;;16.30;99.90;;;;;;5050660;28;20021;-72
2023/10/17 13:15:57;;;;;;;4.95;2.55;;;16.30;99.90;;;;;;5045290;28;20026;-73
2023/10/17 13:18:24;;;;;;;4.53;2.33;;;16.40;99.90;;;;;;5040555;28;20471;-73
2023/10/17 13:20:53;;;;;;;6.85;2.63;;;16.30;99.90;;;;;;5049525;28;20017;-73
2023/10/17 13:23:20;;;;;;;3.72;2.35;;;16.30;99.90;;;;;;5050254;28;20029;-72
2023/10/17 13:25:46;;;;;;;6.55;2.55;;;16.40;99.90;;;;;;5049683;28;20028;-73
2023/10/17 13:28:12;;;;;;;4.97;2.47;;;16.30;99.90;;;;;;5050248;28;20021;-73
2023/10/17 13:30:38;;;;;;;3.67;2.38;;;16.40;99.90;;;;;;5049386;28;20029;-72
2023/10/17 13:33:04;;;;;;;3.92;2.70;;;16.40;99.90;;;;;;5034907;28;20017;-72
2023/10/17 13:35:30;;;;;;;6.55;2.47;;;16.30;99.90;;;;;;5048106;28;20029;-72
2023/10/17 13:37:58;;;;;;;5.55;2.97;;;16.30;99.90;;;;;;5045798;28;20043;-73
2023/10/17 13:40:25;;;;;;;4.13;2.38;;;16.30;99.90;;;;;;5045339;28;20032;-73
2023/10/17 13:42:54;;;;;;;4.53;2.10;;;16.30;99.90;;;;;;5049896;28;20055;-72
2023/10/17 13:45:21;;;;;;;4.05;2.38;;;16.20;99.90;;;;;;5049450;28;20021;-73
2023/10/17 13:47:52;;;;;;;4.43;2.17;;;16.20;99.90;;;;;;5049984;28;20025;-73
2023/10/17 13:50:18;;;;;;;;;;;16.20;99.90;;;;;;5049612;28;20021;-73
2023/10/17 13:52:46;;;;;;;3.88;2.30;;;16.20;99.90;;;;;;5048874;28;19949;-72
2023/10/17 13:55:14;;;;;;;5.15;2.60;;;16.20;99.90;;;;;;5048974;28;20047;-72
2023/10/17 13:57:42;;;;;;;4.22;2.50;;;16.10;99.90;;;;;;5049833;28;20016;-72
2023/10/17 14:00:09;;;;;;;5.65;2.50;;;16.20;99.90;;;;;;5033234;28;20034;-72
2023/10/17 14:02:35;;;;;;;5.03;2.15;;;16.10;99.90;;;;;;5051151;28;20567;-73
2023/10/17 14:05:01;;;;;;;4.88;2.28;;;16.10;99.90;;;;;;5053212;28;20075;-73
2023/10/17 14:07:27;;;;;;;2.97;1.92;;;16.10;99.90;;;;;;5053414;28;20009;-72
2023/10/17 14:09:55;;;;;;;5.15;2.00;;;16.10;99.90;;;;;;5052660;28;20063;-72
2023/10/17 14:12:24;;;;;;;4.63;2.40;;;16.00;99.90;;;;;;5053421;28;20020;-72
2023/10/17 14:14:49;;;;;;;5.45;2.35;;;16.00;99.90;;;;;;5052624;28;20044;-72
2023/10/17 14:17:15;;;;;;;7.10;2.67;;;15.90;99.90;;;;;;5042069;28;20481;-72
2023/10/17 14:19:44;;;;;;;6.00;2.70;;;15.90;99.90;;;;;;5051239;28;20027;-72
2023/10/17 14:22:21;;;;;;;7.65;3.00;;;15.90;99.90;;;;;;5053374;28;20040;-73
2023/10/17 14:25:06;;;;;;;8.20;2.20;;;15.80;99.90;;;;;;5052950;28;20022;-73
2023/10/17 14:27:32;;;;;;;4.10;2.25;;;15.80;99.90;;;;;;5047107;28;20041;-73
2023/10/17 14:30:01;;;;;;;6.65;2.60;;;15.70;99.90;;;;;;5050483;28;20051;-74
2023/10/17 14:32:29;;;;;;;4.20;2.38;;;15.70;99.90;;;;;;5053048;28;20100;-73
2023/10/17 14:34:58;;;;;;;5.80;2.40;;;15.70;99.90;;;;;;5057464;28;20044;-74
2023/10/17 14:37:25;;;;;;;8.05;2.28;;;15.70;99.90;;;;;;5048836;28;20029;-73
2023/10/17 14:39:52;;;;;;;7.28;2.70;;;15.70;99.90;;;;;;5050695;28;20116;-73
2023/10/17 14:42:19;;;;;;;4.20;2.00;;;15.60;99.90;;;;;;5052820;28;20064;-73
2023/10/17 14:44:55;;;;;;;4.50;2.30;;;15.60;99.90;;;;;;5067087;28;20017;-73
2023/10/17 14:47:21;;;;;;;4.80;2.30;;;15.60;99.90;;;;;;5052550;28;20029;-72
2023/10/17 14:49:48;;;;;;;3.97;2.17;;;15.60;99.90;;;;;;5051949;28;20036;-74
2023/10/17 14:52:14;;;;;;;4.78;2.10;;;15.60;99.90;;;;;;5044490;28;20025;-73
2023/10/17 14:54:41;;;;;;;4.25;2.20;;;15.50;99.90;;;;;;5049942;28;21158;-73
2023/10/17 14:57:09;;;;;;;3.22;2.05;;;15.50;99.90;;;;;;5051473;28;20029;-74
2023/10/17 14:59:37;;;;;;;4.70;2.55;;;15.50;99.90;;;;;;5050561;28;20017;-73
2023/10/17 15:02:03;;;;;;;5.82;2.25;;;15.40;99.90;;;;;;5051976;28;20031;-73
2023/10/17 15:04:29;;;;;;;4.22;2.10;;;15.40;99.90;;;;;;5045112;28;20016;-73
2023/10/17 15:06:54;;;;;;;3.92;2.00;;;15.40;99.90;;;;;;5044780;28;20036;-73
2023/10/17 15:09:21;;;;;;;4.63;2.60;;;15.40;99.90;;;;;;5051272;28;20025;-75
2023/10/17 15:11:48;;;;;;;7.75;2.13;;;15.30;99.90;;;;;;5051845;28;20086;-73
2023/10/17 15:14:15;;;;;;;4.53;1.92;;;15.30;99.90;;;;;;5051326;28;20029;-75
2023/10/17 15:16:41;;;;;;;4.57;2.35;;;15.30;99.90;;;;;;5050476;28;20029;-74
2023/10/17 15:19:07;;;;;;;7.57;2.75;;;15.20;99.90;;;;;;5051940;28;20017;-73
2023/10/17 15:21:34;;;;;;;5.28;2.50;;;15.20;99.90;;;;;;5052225;28;20025;-73
2023/10/17 15:24:00;;;;;;;4.55;2.55;;;15.10;99.90;;;;;;5051993;28;20035;-73
2023/10/17 15:26:26;;;;;;;4.25;2.45;;;15.10;99.90;;;;;;5051557;28;20071;-75
2023/10/17 15:28:51;;;;;;;5.13;2.70;;;15.00;99.90;;;;;;5052550;28;20029;-74